createdAt,value
2019-02-20T00:00:06.495Z,1012.36
2019-02-20T00:00:47.068Z,1012.34
2019-02-20T00:01:27.683Z,1012.38
2019-02-20T00:02:08.291Z,1012.41
2019-02-20T00:02:48.976Z,1012.39
2019-02-20T00:03:29.564Z,1012.38
2019-02-20T00:04:10.190Z,1012.34
2019-02-20T00:04:50.748Z,1012.4
2019-02-20T00:05:31.376Z,1012.39
2019-02-20T00:06:11.958Z,1012.38
2019-02-20T00:06:52.535Z,1012.42
2019-02-20T00:07:33.129Z,1012.42
2019-02-20T00:08:16.073Z,1012.4
2019-02-20T00:08:56.685Z,1012.39
2019-02-20T00:09:38.324Z,1012.44
2019-02-20T00:10:19.162Z,1012.44
2019-02-20T00:10:59.748Z,1012.43
2019-02-20T00:11:40.315Z,1012.44
2019-02-20T00:12:20.912Z,1012.37
2019-02-20T00:13:01.478Z,1012.42
2019-02-20T00:13:42.044Z,1012.4
2019-02-20T00:14:22.597Z,1012.42
2019-02-20T00:15:03.201Z,1012.44
2019-02-20T00:15:43.750Z,1012.47
2019-02-20T00:16:24.315Z,1012.45
2019-02-20T00:17:04.886Z,1012.47
2019-02-20T00:17:45.488Z,1012.46
2019-02-20T00:18:26.081Z,1012.49
2019-02-20T00:19:06.622Z,1012.46
2019-02-20T00:19:47.179Z,1012.47
2019-02-20T00:20:27.731Z,1012.45
2019-02-20T00:21:08.296Z,1012.45
2019-02-20T00:21:48.858Z,1012.45
2019-02-20T00:22:29.444Z,1012.5
2019-02-20T00:23:09.996Z,1012.51
2019-02-20T00:23:50.622Z,1012.46
2019-02-20T00:24:31.143Z,1012.5
2019-02-20T00:25:11.681Z,1012.52
2019-02-20T00:25:52.244Z,1012.54
2019-02-20T00:26:32.814Z,1012.54
2019-02-20T00:27:13.407Z,1012.51
2019-02-20T00:27:53.960Z,1012.55
2019-02-20T00:28:34.570Z,1012.56
2019-02-20T00:29:15.121Z,1012.58
2019-02-20T00:29:55.680Z,1012.54
2019-02-20T00:30:36.222Z,1012.52
2019-02-20T00:31:16.832Z,1012.53
2019-02-20T00:31:57.411Z,1012.5
2019-02-20T00:32:37.967Z,1012.49
2019-02-20T00:33:18.513Z,1012.52
2019-02-20T00:33:59.059Z,1012.52
2019-02-20T00:34:39.622Z,1012.52
2019-02-20T00:35:20.203Z,1012.5
2019-02-20T00:36:00.775Z,1012.49
2019-02-20T00:36:41.385Z,1012.45
2019-02-20T00:37:21.922Z,1012.5
2019-02-20T00:38:02.483Z,1012.48
2019-02-20T00:38:43.039Z,1012.53
2019-02-20T00:39:23.590Z,1012.52
2019-02-20T00:40:04.159Z,1012.55
2019-02-20T00:40:44.735Z,1012.55
2019-02-20T00:41:25.302Z,1012.51
2019-02-20T00:42:05.869Z,1012.55
2019-02-20T00:42:46.470Z,1012.54
2019-02-20T00:43:27.097Z,1012.56
2019-02-20T00:44:07.661Z,1012.55
2019-02-20T00:44:48.223Z,1012.53
2019-02-20T00:45:28.855Z,1012.54
2019-02-20T00:46:09.436Z,1012.55
2019-02-20T00:46:49.983Z,1012.55
2019-02-20T00:47:30.568Z,1012.53
2019-02-20T00:48:11.141Z,1012.5
2019-02-20T00:48:51.699Z,1012.56
2019-02-20T00:49:32.284Z,1012.6
2019-02-20T00:50:12.881Z,1012.55
2019-02-20T00:50:53.449Z,1012.56
2019-02-20T00:51:34.005Z,1012.55
2019-02-20T00:52:14.559Z,1012.55
2019-02-20T00:52:55.175Z,1012.55
2019-02-20T00:53:35.739Z,1012.55
2019-02-20T00:54:16.308Z,1012.56
2019-02-20T00:54:56.858Z,1012.55
2019-02-20T00:55:37.443Z,1012.58
2019-02-20T00:56:18.000Z,1012.56
2019-02-20T00:56:58.566Z,1012.57
2019-02-20T00:57:39.149Z,1012.61
2019-02-20T00:58:19.725Z,1012.56
2019-02-20T00:59:00.278Z,1012.55
2019-02-20T00:59:40.845Z,1012.53
2019-02-20T01:00:21.471Z,1012.6
2019-02-20T01:01:02.026Z,1012.59
2019-02-20T01:01:42.616Z,1012.59
2019-02-20T01:02:23.203Z,1012.61
2019-02-20T01:03:03.782Z,1012.67
2019-02-20T01:03:44.332Z,1012.63
2019-02-20T01:04:24.930Z,1012.63
2019-02-20T01:05:05.507Z,1012.63
2019-02-20T01:05:46.070Z,1012.63
2019-02-20T01:06:26.659Z,1012.61
2019-02-20T01:07:07.253Z,1012.66
2019-02-20T01:07:47.817Z,1012.65
2019-02-20T01:08:28.375Z,1012.67
2019-02-20T01:09:08.924Z,1012.69
2019-02-20T01:09:49.537Z,1012.68
2019-02-20T01:10:30.103Z,1012.68
2019-02-20T01:11:10.659Z,1012.67
2019-02-20T01:11:51.222Z,1012.66
2019-02-20T01:12:31.790Z,1012.72
2019-02-20T01:13:12.390Z,1012.69
2019-02-20T01:13:52.960Z,1012.67
2019-02-20T01:14:33.525Z,1012.72
2019-02-20T01:15:14.086Z,1012.76
2019-02-20T01:15:54.681Z,1012.74
2019-02-20T01:16:35.230Z,1012.71
2019-02-20T01:17:15.818Z,1012.69
2019-02-20T01:17:56.397Z,1012.69
2019-02-20T01:18:37.001Z,1012.71
2019-02-20T01:19:17.569Z,1012.71
2019-02-20T01:19:58.137Z,1012.7
2019-02-20T01:20:38.713Z,1012.69
2019-02-20T01:21:19.293Z,1012.73
2019-02-20T01:21:59.920Z,1012.72
2019-02-20T01:22:40.475Z,1012.7
2019-02-20T01:23:21.053Z,1012.68
2019-02-20T01:24:01.645Z,1012.7
2019-02-20T01:24:42.217Z,1012.73
2019-02-20T01:25:22.751Z,1012.64
2019-02-20T01:26:03.320Z,1012.71
2019-02-20T01:26:43.914Z,1012.71
2019-02-20T01:27:24.498Z,1012.73
2019-02-20T01:28:05.135Z,1012.74
2019-02-20T01:28:45.696Z,1012.75
2019-02-20T01:29:26.245Z,1012.75
2019-02-20T01:30:06.802Z,1012.72
2019-02-20T01:30:47.393Z,1012.74
2019-02-20T01:31:27.972Z,1012.75
2019-02-20T01:32:08.570Z,1012.72
2019-02-20T01:32:50.019Z,1012.67
2019-02-20T01:33:30.592Z,1012.63
2019-02-20T01:34:11.158Z,1012.6
2019-02-20T01:34:51.763Z,1012.59
2019-02-20T01:35:32.367Z,1012.59
2019-02-20T01:36:12.966Z,1012.56
2019-02-20T01:36:53.536Z,1012.54
2019-02-20T01:37:34.169Z,1012.62
2019-02-20T01:38:14.743Z,1012.5
2019-02-20T01:38:55.281Z,1012.61
2019-02-20T01:39:35.856Z,1012.64
2019-02-20T01:40:16.453Z,1012.58
2019-02-20T01:40:57.044Z,1012.57
2019-02-20T01:41:37.599Z,1012.64
2019-02-20T01:42:18.150Z,1012.54
2019-02-20T01:42:58.739Z,1012.5
2019-02-20T01:43:39.321Z,1012.56
2019-02-20T01:44:19.876Z,1012.56
2019-02-20T01:45:00.458Z,1012.58
2019-02-20T01:45:41.000Z,1012.56
2019-02-20T01:46:21.570Z,1012.55
2019-02-20T01:47:02.148Z,1012.47
2019-02-20T01:47:42.738Z,1012.47
2019-02-20T01:48:23.307Z,1012.49
2019-02-20T01:49:03.889Z,1012.5
2019-02-20T01:49:44.467Z,1012.51
2019-02-20T01:50:25.044Z,1012.47
2019-02-20T01:51:05.599Z,1012.46
2019-02-20T01:51:46.168Z,1012.49
2019-02-20T01:52:26.727Z,1012.47
2019-02-20T01:53:10.169Z,1012.5
2019-02-20T01:53:47.862Z,1012.46
2019-02-20T01:54:28.430Z,1012.4
2019-02-20T01:55:09.007Z,1012.47
2019-02-20T01:55:49.589Z,1012.45
2019-02-20T01:56:30.140Z,1012.48
2019-02-20T01:57:10.684Z,1012.5
2019-02-20T01:57:51.255Z,1012.55
2019-02-20T01:58:31.822Z,1012.58
2019-02-20T01:59:12.397Z,1012.56
2019-02-20T01:59:53.089Z,1012.56
2019-02-20T02:00:33.655Z,1012.57
2019-02-20T02:01:14.249Z,1012.58
2019-02-20T02:01:54.818Z,1012.56
2019-02-20T02:02:35.405Z,1012.55
2019-02-20T02:03:15.947Z,1012.55
2019-02-20T02:03:56.511Z,1012.57
2019-02-20T02:04:37.141Z,1012.55
2019-02-20T02:05:17.707Z,1012.62
2019-02-20T02:05:58.288Z,1012.58
2019-02-20T02:06:38.861Z,1012.62
2019-02-20T02:07:19.466Z,1012.59
2019-02-20T02:08:00.087Z,1012.56
2019-02-20T02:08:40.651Z,1012.6
2019-02-20T02:09:21.206Z,1012.62
2019-02-20T02:10:01.807Z,1012.62
2019-02-20T02:10:42.362Z,1012.61
2019-02-20T02:11:22.967Z,1012.62
2019-02-20T02:12:03.540Z,1012.59
2019-02-20T02:12:44.117Z,1012.5
2019-02-20T02:13:24.697Z,1012.56
2019-02-20T02:14:05.256Z,1012.58
2019-02-20T02:14:45.828Z,1012.56
2019-02-20T02:15:26.386Z,1012.54
2019-02-20T02:16:06.933Z,1012.54
2019-02-20T02:16:47.519Z,1012.58
2019-02-20T02:17:28.091Z,1012.52
2019-02-20T02:18:08.718Z,1012.55
2019-02-20T02:18:49.285Z,1012.56
2019-02-20T02:19:29.857Z,1012.63
2019-02-20T02:20:10.449Z,1012.53
2019-02-20T02:20:51.036Z,1012.56
2019-02-20T02:21:31.590Z,1012.54
2019-02-20T02:22:12.156Z,1012.56
2019-02-20T02:22:52.717Z,1012.58
2019-02-20T02:23:33.289Z,1012.52
2019-02-20T02:24:13.936Z,1012.49
2019-02-20T02:24:54.487Z,1012.51
2019-02-20T02:25:35.073Z,1012.53
2019-02-20T02:26:15.637Z,1012.47
2019-02-20T02:26:56.268Z,1012.51
2019-02-20T02:27:36.812Z,1012.47
2019-02-20T02:28:17.398Z,1012.46
2019-02-20T02:28:57.968Z,1012.52
2019-02-20T02:29:38.559Z,1012.48
2019-02-20T02:30:19.164Z,1012.53
2019-02-20T02:30:59.726Z,1012.57
2019-02-20T02:31:40.294Z,1012.53
2019-02-20T02:32:20.866Z,1012.58
2019-02-20T02:33:01.437Z,1012.58
2019-02-20T02:33:41.999Z,1012.56
2019-02-20T02:34:22.611Z,1012.58
2019-02-20T02:35:03.203Z,1012.53
2019-02-20T02:35:43.815Z,1012.59
2019-02-20T02:36:24.381Z,1012.55
2019-02-20T02:37:04.969Z,1012.6
2019-02-20T02:37:45.569Z,1012.59
2019-02-20T02:38:26.210Z,1012.67
2019-02-20T02:39:06.822Z,1012.61
2019-02-20T02:39:47.424Z,1012.61
2019-02-20T02:40:27.986Z,1012.62
2019-02-20T02:41:08.536Z,1012.6
2019-02-20T02:41:49.112Z,1012.64
2019-02-20T02:42:29.704Z,1012.63
2019-02-20T02:43:10.290Z,1012.64
2019-02-20T02:43:50.818Z,1012.62
2019-02-20T02:44:31.356Z,1012.62
2019-02-20T02:45:11.919Z,1012.61
2019-02-20T02:45:52.492Z,1012.68
2019-02-20T02:46:33.106Z,1012.63
2019-02-20T02:47:13.692Z,1012.62
2019-02-20T02:47:54.270Z,1012.68
2019-02-20T02:48:34.833Z,1012.59
2019-02-20T02:49:15.428Z,1012.68
2019-02-20T02:49:55.960Z,1012.66
2019-02-20T02:50:36.544Z,1012.65
2019-02-20T02:51:17.137Z,1012.64
2019-02-20T02:51:57.713Z,1012.71
2019-02-20T02:52:38.275Z,1012.67
2019-02-20T02:53:18.857Z,1012.71
2019-02-20T02:53:59.410Z,1012.71
2019-02-20T02:54:39.983Z,1012.66
2019-02-20T02:55:20.590Z,1012.76
2019-02-20T02:56:01.193Z,1012.73
2019-02-20T02:56:41.762Z,1012.7
2019-02-20T02:57:22.313Z,1012.7
2019-02-20T02:58:02.869Z,1012.69
2019-02-20T02:58:43.452Z,1012.68
2019-02-20T02:59:24.123Z,1012.71
2019-02-20T03:00:04.676Z,1012.69
2019-02-20T03:00:45.226Z,1012.69
2019-02-20T03:01:25.790Z,1012.68
2019-02-20T03:02:06.365Z,1012.65
2019-02-20T03:02:46.916Z,1012.64
2019-02-20T03:03:27.554Z,1012.65
2019-02-20T03:04:08.115Z,1012.66
2019-02-20T03:04:48.703Z,1012.63
2019-02-20T03:05:29.257Z,1012.68
2019-02-20T03:06:09.841Z,1012.64
2019-02-20T03:06:50.383Z,1012.68
2019-02-20T03:07:30.952Z,1012.61
2019-02-20T03:08:11.571Z,1012.6
2019-02-20T03:08:52.129Z,1012.62
2019-02-20T03:09:32.663Z,1012.65
2019-02-20T03:10:13.239Z,1012.61
2019-02-20T03:10:53.822Z,1012.65
2019-02-20T03:11:34.407Z,1012.65
2019-02-20T03:12:15.012Z,1012.7
2019-02-20T03:12:55.551Z,1012.68
2019-02-20T03:13:36.133Z,1012.64
2019-02-20T03:14:16.695Z,1012.65
2019-02-20T03:14:57.302Z,1012.67
2019-02-20T03:15:37.851Z,1012.67
2019-02-20T03:16:18.440Z,1012.65
2019-02-20T03:16:59.043Z,1012.65
2019-02-20T03:17:39.573Z,1012.67
2019-02-20T03:18:20.130Z,1012.68
2019-02-20T03:19:00.683Z,1012.67
2019-02-20T03:19:41.262Z,1012.68
2019-02-20T03:20:21.788Z,1012.71
2019-02-20T03:21:02.357Z,1012.68
2019-02-20T03:21:42.907Z,1012.66
2019-02-20T03:22:23.468Z,1012.7
2019-02-20T03:23:04.021Z,1012.67
2019-02-20T03:23:44.597Z,1012.7
2019-02-20T03:24:25.164Z,1012.68
2019-02-20T03:25:05.764Z,1012.72
2019-02-20T03:25:46.317Z,1012.71
2019-02-20T03:26:26.917Z,1012.74
2019-02-20T03:27:07.478Z,1012.73
2019-02-20T03:27:48.044Z,1012.76
2019-02-20T03:28:28.594Z,1012.75
2019-02-20T03:29:09.151Z,1012.82
2019-02-20T03:29:49.749Z,1012.76
2019-02-20T03:30:30.309Z,1012.77
2019-02-20T03:31:10.898Z,1012.77
2019-02-20T03:31:51.453Z,1012.8
2019-02-20T03:32:32.018Z,1012.78
2019-02-20T03:33:12.582Z,1012.83
2019-02-20T03:33:53.194Z,1012.8
2019-02-20T03:34:33.767Z,1012.84
2019-02-20T03:35:14.323Z,1012.84
2019-02-20T03:35:54.902Z,1012.83
2019-02-20T03:36:35.468Z,1012.85
2019-02-20T03:37:16.023Z,1012.89
2019-02-20T03:37:56.608Z,1012.9
2019-02-20T03:38:37.174Z,1012.91
2019-02-20T03:39:17.726Z,1012.9
2019-02-20T03:39:58.313Z,1012.94
2019-02-20T03:40:38.864Z,1012.94
2019-02-20T03:41:19.434Z,1012.92
2019-02-20T03:42:00.009Z,1012.93
2019-02-20T03:42:40.601Z,1012.96
2019-02-20T03:43:21.169Z,1012.96
2019-02-20T03:44:01.717Z,1013.06
2019-02-20T03:44:42.305Z,1012.97
2019-02-20T03:45:22.875Z,1012.98
2019-02-20T03:46:03.442Z,1013
2019-02-20T03:46:44.025Z,1012.98
2019-02-20T03:47:24.610Z,1012.99
2019-02-20T03:48:05.213Z,1012.94
2019-02-20T03:48:45.750Z,1012.95
2019-02-20T03:49:26.303Z,1013.01
2019-02-20T03:50:06.902Z,1012.99
2019-02-20T03:50:47.505Z,1012.99
2019-02-20T03:51:28.122Z,1012.94
2019-02-20T03:52:08.697Z,1012.95
2019-02-20T03:52:49.319Z,1012.93
2019-02-20T03:53:29.894Z,1012.97
2019-02-20T03:54:10.461Z,1012.96
2019-02-20T03:54:51.079Z,1012.95
2019-02-20T03:55:31.649Z,1012.99
2019-02-20T03:56:12.207Z,1012.93
2019-02-20T03:56:52.764Z,1012.95
2019-02-20T03:57:33.338Z,1012.95
2019-02-20T03:58:13.890Z,1012.94
2019-02-20T03:58:54.454Z,1013.02
2019-02-20T03:59:35.004Z,1013.01
2019-02-20T04:00:15.588Z,1013.01
2019-02-20T04:00:56.148Z,1012.97
2019-02-20T04:01:36.690Z,1012.94
2019-02-20T04:02:17.258Z,1012.99
2019-02-20T04:02:57.822Z,1012.99
2019-02-20T04:03:38.393Z,1012.99
2019-02-20T04:04:18.959Z,1013.02
2019-02-20T04:04:59.599Z,1013.01
2019-02-20T04:05:40.182Z,1012.99
2019-02-20T04:06:20.773Z,1013.02
2019-02-20T04:07:01.329Z,1013.02
2019-02-20T04:07:41.919Z,1012.99
2019-02-20T04:08:22.519Z,1012.98
2019-02-20T04:09:03.079Z,1012.94
2019-02-20T04:09:43.622Z,1012.99
2019-02-20T04:10:24.221Z,1013.02
2019-02-20T04:11:04.812Z,1013.02
2019-02-20T04:11:45.395Z,1013.03
2019-02-20T04:12:25.982Z,1013.02
2019-02-20T04:13:06.533Z,1013.02
2019-02-20T04:13:47.143Z,1013.04
2019-02-20T04:14:27.708Z,1013.04
2019-02-20T04:15:08.310Z,1013.05
2019-02-20T04:15:48.869Z,1013.07
2019-02-20T04:16:29.453Z,1013.06
2019-02-20T04:17:09.995Z,1013.04
2019-02-20T04:17:50.578Z,1013.05
2019-02-20T04:18:31.145Z,1013.07
2019-02-20T04:19:11.719Z,1013.08
2019-02-20T04:19:52.282Z,1013.03
2019-02-20T04:20:32.882Z,1013.03
2019-02-20T04:21:13.473Z,1013.06
2019-02-20T04:21:54.537Z,1013.01
2019-02-20T04:22:35.108Z,1012.99
2019-02-20T04:23:15.689Z,1013.11
2019-02-20T04:24:02.150Z,1013.03
2019-02-20T04:24:36.906Z,1013.02
2019-02-20T04:25:17.472Z,1013.09
2019-02-20T04:25:58.072Z,1013.09
2019-02-20T04:26:38.627Z,1013.13
2019-02-20T04:27:19.182Z,1013.14
2019-02-20T04:27:59.749Z,1013.09
2019-02-20T04:28:40.322Z,1013.08
2019-02-20T04:29:20.930Z,1013.11
2019-02-20T04:30:01.519Z,1013.08
2019-02-20T04:30:42.103Z,1013.11
2019-02-20T04:31:22.651Z,1013.07
2019-02-20T04:32:03.208Z,1013.07
2019-02-20T04:32:43.760Z,1013.07
2019-02-20T04:33:24.373Z,1013.01
2019-02-20T04:34:04.947Z,1013
2019-02-20T04:34:45.509Z,1013.01
2019-02-20T04:35:26.063Z,1012.99
2019-02-20T04:36:06.649Z,1013.02
2019-02-20T04:36:47.232Z,1013.05
2019-02-20T04:37:27.812Z,1013.06
2019-02-20T04:38:08.444Z,1013.06
2019-02-20T04:38:49.017Z,1013.06
2019-02-20T04:39:29.594Z,1013.08
2019-02-20T04:40:10.153Z,1013.1
2019-02-20T04:40:50.741Z,1013.11
2019-02-20T04:41:31.353Z,1013.11
2019-02-20T04:42:11.939Z,1013.13
2019-02-20T04:42:52.528Z,1013.12
2019-02-20T04:43:33.113Z,1013.12
2019-02-20T04:44:13.666Z,1013.07
2019-02-20T04:44:54.248Z,1013.12
2019-02-20T04:45:34.826Z,1013.12
2019-02-20T04:46:15.382Z,1013.08
2019-02-20T04:46:55.943Z,1013.2
2019-02-20T04:47:36.482Z,1013.14
2019-02-20T04:48:17.072Z,1013.13
2019-02-20T04:48:57.681Z,1013.14
2019-02-20T04:49:38.242Z,1013.17
2019-02-20T04:50:18.807Z,1013.15
2019-02-20T04:50:59.378Z,1013.14
2019-02-20T04:51:39.945Z,1013.19
2019-02-20T04:52:20.554Z,1013.15
2019-02-20T04:53:01.124Z,1013.17
2019-02-20T04:53:41.703Z,1013.16
2019-02-20T04:54:22.267Z,1013.15
2019-02-20T04:55:02.864Z,1013.17
2019-02-20T04:55:43.422Z,1013.14
2019-02-20T04:56:23.981Z,1013.15
2019-02-20T04:57:04.558Z,1013.2
2019-02-20T04:57:45.129Z,1013.13
2019-02-20T04:58:25.748Z,1013.17
2019-02-20T04:59:06.303Z,1013.21
2019-02-20T04:59:46.886Z,1013.22
2019-02-20T05:00:27.446Z,1013.16
2019-02-20T05:01:08.025Z,1013.21
2019-02-20T05:01:48.593Z,1013.18
2019-02-20T05:02:29.160Z,1013.16
2019-02-20T05:03:09.747Z,1013.14
2019-02-20T05:03:50.338Z,1013.13
2019-02-20T05:04:30.892Z,1013.12
2019-02-20T05:05:11.462Z,1013.12
2019-02-20T05:05:52.044Z,1013.11
2019-02-20T05:06:32.614Z,1013.16
2019-02-20T05:07:13.189Z,1013.12
2019-02-20T05:07:53.771Z,1013.13
2019-02-20T05:08:34.334Z,1013.16
2019-02-20T05:09:14.884Z,1013.12
2019-02-20T05:09:55.480Z,1013.13
2019-02-20T05:10:36.042Z,1013.12
2019-02-20T05:11:16.624Z,1013.17
2019-02-20T05:11:57.193Z,1013.22
2019-02-20T05:12:37.777Z,1013.22
2019-02-20T05:13:18.325Z,1013.21
2019-02-20T05:13:58.905Z,1013.2
2019-02-20T05:14:39.455Z,1013.25
2019-02-20T05:15:20.007Z,1013.22
2019-02-20T05:16:00.595Z,1013.2
2019-02-20T05:16:41.154Z,1013.28
2019-02-20T05:17:21.744Z,1013.22
2019-02-20T05:18:02.306Z,1013.21
2019-02-20T05:18:42.861Z,1013.19
2019-02-20T05:19:23.450Z,1013.2
2019-02-20T05:20:04.069Z,1013.2
2019-02-20T05:20:44.649Z,1013.2
2019-02-20T05:21:25.228Z,1013.22
2019-02-20T05:22:05.797Z,1013.2
2019-02-20T05:22:46.390Z,1013.16
2019-02-20T05:23:26.954Z,1013.16
2019-02-20T05:24:07.523Z,1013.1
2019-02-20T05:24:48.091Z,1013.17
2019-02-20T05:25:28.678Z,1013.15
2019-02-20T05:26:09.234Z,1013.13
2019-02-20T05:26:49.815Z,1013.15
2019-02-20T05:27:30.380Z,1013.16
2019-02-20T05:28:10.968Z,1013.15
2019-02-20T05:28:51.507Z,1013.15
2019-02-20T05:29:32.086Z,1013.21
2019-02-20T05:30:12.707Z,1013.23
2019-02-20T05:30:53.234Z,1013.24
2019-02-20T05:31:33.838Z,1013.24
2019-02-20T05:32:14.398Z,1013.33
2019-02-20T05:32:54.981Z,1013.26
2019-02-20T05:33:35.579Z,1013.31
2019-02-20T05:34:16.112Z,1013.27
2019-02-20T05:34:56.691Z,1013.27
2019-02-20T05:35:37.250Z,1013.31
2019-02-20T05:36:17.826Z,1013.23
2019-02-20T05:36:58.431Z,1013.23
2019-02-20T05:37:39.674Z,1013.25
2019-02-20T05:38:19.560Z,1013.21
2019-02-20T05:39:00.125Z,1013.21
2019-02-20T05:39:40.697Z,1013.21
2019-02-20T05:40:21.322Z,1013.31
2019-02-20T05:41:01.871Z,1013.26
2019-02-20T05:41:42.445Z,1013.31
2019-02-20T05:42:23.022Z,1013.35
2019-02-20T05:43:03.632Z,1013.33
2019-02-20T05:43:44.205Z,1013.41
2019-02-20T05:44:24.810Z,1013.39
2019-02-20T05:45:05.359Z,1013.42
2019-02-20T05:45:45.923Z,1013.39
2019-02-20T05:46:26.469Z,1013.42
2019-02-20T05:47:07.118Z,1013.4
2019-02-20T05:47:47.711Z,1013.41
2019-02-20T05:48:28.321Z,1013.38
2019-02-20T05:49:08.918Z,1013.41
2019-02-20T05:49:49.477Z,1013.44
2019-02-20T05:50:30.049Z,1013.38
2019-02-20T05:51:10.632Z,1013.37
2019-02-20T05:51:51.213Z,1013.44
2019-02-20T05:52:31.762Z,1013.46
2019-02-20T05:53:12.330Z,1013.46
2019-02-20T05:53:52.903Z,1013.47
2019-02-20T05:54:34.778Z,1013.47
2019-02-20T05:55:14.031Z,1013.53
2019-02-20T05:55:54.594Z,1013.53
2019-02-20T05:56:35.177Z,1013.56
2019-02-20T05:57:15.781Z,1013.53
2019-02-20T05:57:56.338Z,1013.57
2019-02-20T05:58:36.925Z,1013.55
2019-02-20T05:59:17.506Z,1013.58
2019-02-20T05:59:58.078Z,1013.52
2019-02-20T06:00:38.647Z,1013.5
2019-02-20T06:01:19.200Z,1013.54
2019-02-20T06:01:59.751Z,1013.51
2019-02-20T06:02:40.298Z,1013.49
2019-02-20T06:03:20.854Z,1013.51
2019-02-20T06:04:01.526Z,1013.47
2019-02-20T06:04:42.083Z,1013.46
2019-02-20T06:05:22.706Z,1013.5
2019-02-20T06:06:03.280Z,1013.52
2019-02-20T06:06:43.852Z,1013.55
2019-02-20T06:07:24.434Z,1013.55
2019-02-20T06:08:04.985Z,1013.57
2019-02-20T06:08:45.543Z,1013.55
2019-02-20T06:09:26.139Z,1013.58
2019-02-20T06:10:06.693Z,1013.55
2019-02-20T06:10:47.262Z,1013.59
2019-02-20T06:11:27.931Z,1013.57
2019-02-20T06:12:08.515Z,1013.57
2019-02-20T06:12:49.076Z,1013.54
2019-02-20T06:13:29.629Z,1013.55
2019-02-20T06:14:10.209Z,1013.58
2019-02-20T06:14:50.783Z,1013.56
2019-02-20T06:15:31.343Z,1013.59
2019-02-20T06:16:11.925Z,1013.58
2019-02-20T06:16:52.522Z,1013.55
2019-02-20T06:17:33.121Z,1013.57
2019-02-20T06:18:13.711Z,1013.61
2019-02-20T06:18:54.275Z,1013.59
2019-02-20T06:19:34.885Z,1013.57
2019-02-20T06:20:15.452Z,1013.6
2019-02-20T06:20:56.093Z,1013.59
2019-02-20T06:21:37.059Z,1013.6
2019-02-20T06:22:17.626Z,1013.63
2019-02-20T06:22:58.287Z,1013.65
2019-02-20T06:23:38.929Z,1013.64
2019-02-20T06:24:19.489Z,1013.65
2019-02-20T06:25:01.975Z,1013.64
2019-02-20T06:25:42.521Z,1013.64
2019-02-20T06:26:23.100Z,1013.71
2019-02-20T06:27:03.669Z,1013.68
2019-02-20T06:27:44.229Z,1013.72
2019-02-20T06:28:24.912Z,1013.73
2019-02-20T06:29:05.438Z,1013.76
2019-02-20T06:29:46.044Z,1013.74
2019-02-20T06:30:26.628Z,1013.8
2019-02-20T06:31:07.201Z,1013.8
2019-02-20T06:31:47.791Z,1013.81
2019-02-20T06:32:28.369Z,1013.79
2019-02-20T06:33:08.933Z,1013.85
2019-02-20T06:33:49.517Z,1013.83
2019-02-20T06:34:30.321Z,1013.85
2019-02-20T06:35:10.864Z,1013.84
2019-02-20T06:35:51.413Z,1013.88
2019-02-20T06:36:31.969Z,1013.88
2019-02-20T06:37:12.569Z,1013.83
2019-02-20T06:37:53.176Z,1013.89
2019-02-20T06:38:33.738Z,1013.89
2019-02-20T06:39:14.354Z,1013.94
2019-02-20T06:39:55.069Z,1013.87
2019-02-20T06:40:37.055Z,1013.9
2019-02-20T06:41:18.305Z,1013.88
2019-02-20T06:41:58.979Z,1013.87
2019-02-20T06:42:39.763Z,1013.9
2019-02-20T06:43:20.914Z,1013.88
2019-02-20T06:44:02.820Z,1013.87
2019-02-20T06:44:43.449Z,1013.85
2019-02-20T06:45:24.266Z,1013.86
2019-02-20T06:46:04.967Z,1013.91
2019-02-20T06:46:45.791Z,1013.86
2019-02-20T06:47:26.451Z,1013.93
2019-02-20T06:48:06.999Z,1013.94
2019-02-20T06:48:47.566Z,1013.94
2019-02-20T06:49:28.112Z,1013.93
2019-02-20T06:50:08.702Z,1013.97
2019-02-20T06:50:49.268Z,1013.96
2019-02-20T06:51:29.825Z,1013.99
2019-02-20T06:52:10.397Z,1014.01
2019-02-20T06:52:50.955Z,1014.03
2019-02-20T06:53:31.530Z,1013.99
2019-02-20T06:54:12.148Z,1014.05
2019-02-20T06:54:54.043Z,1014.03
2019-02-20T06:55:33.370Z,1014.03
2019-02-20T06:56:13.976Z,1014.03
2019-02-20T06:56:54.877Z,1014.07
2019-02-20T06:57:35.431Z,1014.01
2019-02-20T06:58:16.045Z,1014.02
2019-02-20T06:58:56.640Z,1014.03
2019-02-20T06:59:37.235Z,1014.05
2019-02-20T07:00:17.819Z,1014.04
2019-02-20T07:00:58.467Z,1014.05
2019-02-20T07:01:39.059Z,1014.07
2019-02-20T07:02:19.655Z,1014.15
2019-02-20T07:03:00.236Z,1014.07
2019-02-20T07:03:40.841Z,1014.09
2019-02-20T07:04:21.408Z,1014.15
2019-02-20T07:05:01.981Z,1014.14
2019-02-20T07:05:42.572Z,1014.13
2019-02-20T07:06:23.149Z,1014.16
2019-02-20T07:07:03.723Z,1014.16
2019-02-20T07:07:44.333Z,1014.14
2019-02-20T07:08:25.010Z,1014.1
2019-02-20T07:09:05.594Z,1014.11
2019-02-20T07:09:46.191Z,1014.13
2019-02-20T07:10:26.775Z,1014.08
2019-02-20T07:11:07.360Z,1014.12
2019-02-20T07:11:48.003Z,1014.11
2019-02-20T07:12:28.569Z,1014.1
2019-02-20T07:13:09.136Z,1014.14
2019-02-20T07:13:49.732Z,1014.13
2019-02-20T07:14:30.304Z,1014.14
2019-02-20T07:15:10.875Z,1014.15
2019-02-20T07:15:51.448Z,1014.15
2019-02-20T07:16:31.996Z,1014.18
2019-02-20T07:17:12.568Z,1014.18
2019-02-20T07:17:53.138Z,1014.23
2019-02-20T07:18:33.721Z,1014.23
2019-02-20T07:19:14.272Z,1014.24
2019-02-20T07:19:54.898Z,1014.21
2019-02-20T07:20:35.468Z,1014.24
2019-02-20T07:21:16.034Z,1014.29
2019-02-20T07:21:56.611Z,1014.27
2019-02-20T07:22:37.158Z,1014.3
2019-02-20T07:23:17.708Z,1014.27
2019-02-20T07:23:58.295Z,1014.26
2019-02-20T07:24:38.979Z,1014.35
2019-02-20T07:25:19.568Z,1014.33
2019-02-20T07:26:00.184Z,1014.41
2019-02-20T07:26:40.740Z,1014.43
2019-02-20T07:27:21.317Z,1014.46
2019-02-20T07:28:02.009Z,1014.43
2019-02-20T07:28:42.597Z,1014.46
2019-02-20T07:29:23.156Z,1014.46
2019-02-20T07:30:03.724Z,1014.48
2019-02-20T07:30:44.281Z,1014.47
2019-02-20T07:31:24.829Z,1014.51
2019-02-20T07:32:05.401Z,1014.48
2019-02-20T07:32:45.967Z,1014.53
2019-02-20T07:33:26.530Z,1014.52
2019-02-20T07:34:07.091Z,1014.59
2019-02-20T07:34:47.656Z,1014.59
2019-02-20T07:35:28.230Z,1014.51
2019-02-20T07:36:08.815Z,1014.58
2019-02-20T07:36:49.360Z,1014.56
2019-02-20T07:37:30.013Z,1014.55
2019-02-20T07:38:10.558Z,1014.56
2019-02-20T07:38:51.132Z,1014.61
2019-02-20T07:39:31.700Z,1014.58
2019-02-20T07:40:12.263Z,1014.64
2019-02-20T07:40:52.804Z,1014.59
2019-02-20T07:41:33.385Z,1014.57
2019-02-20T07:42:13.947Z,1014.61
2019-02-20T07:42:54.505Z,1014.56
2019-02-20T07:43:35.075Z,1014.57
2019-02-20T07:44:15.718Z,1014.58
2019-02-20T07:44:56.276Z,1014.6
2019-02-20T07:45:36.843Z,1014.62
2019-02-20T07:46:17.423Z,1014.67
2019-02-20T07:46:57.987Z,1014.63
2019-02-20T07:47:38.550Z,1014.64
2019-02-20T07:48:19.127Z,1014.65
2019-02-20T07:48:59.685Z,1014.62
2019-02-20T07:49:40.303Z,1014.68
2019-02-20T07:50:20.896Z,1014.69
2019-02-20T07:51:01.443Z,1014.68
2019-02-20T07:51:42.040Z,1014.74
2019-02-20T07:52:22.632Z,1014.75
2019-02-20T07:53:03.218Z,1014.74
2019-02-20T07:53:43.776Z,1014.77
2019-02-20T07:54:24.345Z,1014.75
2019-02-20T07:55:12.854Z,1014.77
2019-02-20T07:55:45.495Z,1014.78
2019-02-20T07:56:26.050Z,1014.83
2019-02-20T07:57:06.642Z,1014.77
2019-02-20T07:57:47.200Z,1014.8
2019-02-20T07:58:27.767Z,1014.83
2019-02-20T07:59:08.352Z,1014.85
2019-02-20T07:59:48.975Z,1014.89
2019-02-20T08:00:29.526Z,1014.9
2019-02-20T08:01:10.111Z,1014.88
2019-02-20T08:01:50.699Z,1014.91
2019-02-20T08:02:31.266Z,1014.88
2019-02-20T08:03:11.823Z,1014.9
2019-02-20T08:03:52.384Z,1014.81
2019-02-20T08:04:32.936Z,1014.89
2019-02-20T08:05:13.513Z,1014.9
2019-02-20T08:05:54.071Z,1014.89
2019-02-20T08:06:34.731Z,1014.88
2019-02-20T08:07:15.314Z,1014.86
2019-02-20T08:07:55.869Z,1014.91
2019-02-20T08:08:36.444Z,1014.92
2019-02-20T08:09:16.992Z,1014.92
2019-02-20T08:09:57.572Z,1014.86
2019-02-20T08:10:38.173Z,1014.92
2019-02-20T08:11:18.741Z,1014.91
2019-02-20T08:11:59.310Z,1014.9